Time;durP1;ratioP1;P1;durP2;ratioP2;P2;SDS_P1;SDS_P2;PMS_P1;PMS_P2;Temp;Humidity;BMP_temperature;BMP_pressure;BME280_temperature;BME280_humidity;BME280_pressure;Samples;Min_cycle;Max_cycle;Signal;HPM_P1;HPM_P2
2022/06/03 00:02:07;;;;;;;4.63;4.23;;;14.30;1.00;;;;;;5049403;28;20438;-62
2022/06/03 00:04:36;;;;;;;4.67;4.27;;;14.10;1.00;;;;;;5051798;28;20935;-61
2022/06/03 00:07:36;;;;;;;5.10;4.80;;;14.10;1.00;;;;;;5049626;28;20507;-59
2022/06/03 00:10:26;;;;;;;5.07;4.67;;;14.10;1.00;;;;;;5038102;28;20459;-61
2022/06/03 00:13:31;;;;;;;5.20;4.80;;;14.10;1.00;;;;;;5047825;28;20502;-60
2022/06/03 00:16:09;;;;;;;5.37;4.93;;;14.00;1.00;;;;;;5041542;28;20527;-61
2022/06/03 00:18:48;;;;;;;5.43;4.93;;;14.00;1.00;;;;;;5050902;28;20438;-60
2022/06/03 00:21:56;;;;;;;5.43;4.97;;;14.00;1.00;;;;;;5053148;28;20533;-61
2022/06/03 00:24:21;;;;;;;5.13;4.73;;;13.90;1.00;;;;;;5045487;28;20444;-61
2022/06/03 00:27:12;;;;;;;4.60;4.30;;;13.90;1.00;;;;;;5052473;28;20968;-62
2022/06/03 00:29:59;;;;;;;5.33;4.93;;;13.90;1.00;;;;;;5050609;28;20545;-61
2022/06/03 00:32:38;;;;;;;5.40;5.00;;;14.00;1.00;;;;;;5044456;28;20545;-61
2022/06/03 00:35:16;;;;;;;5.63;4.90;;;13.90;1.00;;;;;;5045354;28;20514;-60
2022/06/03 00:38:08;;;;;;;5.60;5.10;;;13.90;1.00;;;;;;5047834;28;20891;-60
2022/06/03 00:41:08;;;;;;;5.43;5.03;;;13.90;1.00;;;;;;5048443;28;20449;-61
2022/06/03 00:43:58;;;;;;;5.10;4.70;;;13.80;1.00;;;;;;5051435;28;20479;-61
2022/06/03 00:47:05;;;;;;;5.40;5.00;;;13.70;1.00;;;;;;5057981;28;20536;-60
2022/06/03 00:50:08;;;;;;;5.03;4.73;;;13.60;1.00;;;;;;5033418;28;20542;-60
2022/06/03 00:52:49;;;;;;;4.50;4.20;;;13.60;1.00;;;;;;5029385;28;20462;-61
2022/06/03 00:55:20;;;;;;;5.30;4.90;;;13.60;1.00;;;;;;5047653;28;20488;-61
2022/06/03 00:57:57;;;;;;;4.50;4.17;;;13.60;1.00;;;;;;5045861;28;20958;-61
2022/06/03 01:00:27;;;;;;;4.83;4.43;;;13.50;1.00;;;;;;5048358;28;20951;-61
2022/06/03 01:03:18;;;;;;;4.57;4.20;;;13.40;1.00;;;;;;5047749;28;20438;-60
2022/06/03 01:06:20;;;;;;;4.60;4.30;;;13.40;1.00;;;;;;5047921;28;20454;-61
2022/06/03 01:08:58;;;;;;;5.10;4.70;;;13.40;1.00;;;;;;5043696;28;20478;-60
2022/06/03 01:12:02;;;;;;;4.90;4.50;;;13.40;1.00;;;;;;5041747;28;20858;-60
2022/06/03 01:14:47;;;;;;;4.60;4.30;;;13.30;1.00;;;;;;5040094;28;21038;-60
2022/06/03 01:17:45;;;;;;;4.83;4.53;;;13.20;1.00;;;;;;5043501;28;20526;-61
2022/06/03 01:20:20;;;;;;;4.67;4.27;;;13.10;1.00;;;;;;5047205;28;21014;-60
2022/06/03 01:22:55;;;;;;;4.83;4.53;;;13.10;1.00;;;;;;5048960;28;20469;-60
2022/06/03 01:25:41;;;;;;;4.93;4.50;;;13.10;1.00;;;;;;5050422;28;20481;-60
2022/06/03 01:28:24;;;;;;;4.77;4.47;;;13.00;1.00;;;;;;5058275;28;20450;-60
2022/06/03 01:31:54;;;;;;;5.50;5.10;;;13.10;1.00;;;;;;5042322;28;20447;-60
2022/06/03 01:34:25;;;;;;;4.70;4.40;;;13.00;1.00;;;;;;5035556;28;20498;-62
2022/06/03 01:37:41;;;;;;;5.40;4.90;;;13.10;1.00;;;;;;5048370;28;20470;-60
2022/06/03 01:40:33;;;;;;;4.87;4.57;;;13.00;1.00;;;;;;5039880;28;20549;-61
2022/06/03 01:43:07;;;;;;;4.53;4.17;;;13.00;1.00;;;;;;5047749;28;20480;-60
2022/06/03 01:45:38;;;;;;;5.20;4.70;;;13.00;1.00;;;;;;5053268;28;20480;-61
2022/06/03 01:48:10;;;;;;;5.47;5.07;;;12.90;1.00;;;;;;5054271;28;20473;-60
2022/06/03 01:51:21;;;;;;;5.50;5.10;;;12.90;1.00;;;;;;5046753;28;20470;-61
2022/06/03 01:54:19;;;;;;;5.10;4.70;;;12.90;1.00;;;;;;5048095;28;20469;-60
2022/06/03 01:57:03;;;;;;;5.00;4.60;;;12.80;1.00;;;;;;5041606;28;20461;-59
2022/06/03 01:59:49;;;;;;;5.17;4.77;;;12.80;1.00;;;;;;5046576;28;20443;-60
2022/06/03 02:02:47;;;;;;;4.40;4.10;;;12.80;1.00;;;;;;5047543;28;20446;-60
2022/06/03 02:05:15;;;;;;;5.10;4.70;;;12.70;1.00;;;;;;5047791;28;20446;-61
2022/06/03 02:08:10;;;;;;;6.13;4.70;;;12.60;1.00;;;;;;5047297;28;20569;-61
2022/06/03 02:11:24;;;;;;;5.03;4.73;;;12.70;1.00;;;;;;5049366;28;20500;-61
2022/06/03 02:13:50;;;;;;;4.30;4.00;;;12.60;1.00;;;;;;5046300;28;20461;-61
2022/06/03 02:16:35;;;;;;;5.20;4.90;;;12.60;1.00;;;;;;5045528;28;20462;-60
2022/06/03 02:19:22;;;;;;;6.80;4.70;;;12.60;1.00;;;;;;5048737;28;20187;-62
2022/06/03 02:22:20;;;;;;;5.37;4.97;;;12.60;1.00;;;;;;5049318;28;20548;-60
2022/06/03 02:25:10;;;;;;;5.40;4.90;;;12.50;1.00;;;;;;5047287;28;22140;-61
2022/06/03 02:28:13;;;;;;;5.07;4.70;;;12.50;1.00;;;;;;5041345;28;20481;-61
2022/06/03 02:31:07;;;;;;;5.37;4.87;;;12.40;1.00;;;;;;5042171;28;20531;-60
2022/06/03 02:33:56;;;;;;;6.17;4.37;;;12.40;1.00;;;;;;5042602;28;20481;-61
2022/06/03 02:36:44;;;;;;;5.20;4.80;;;12.30;1.00;;;;;;5047666;28;21110;-61
2022/06/03 02:39:46;;;;;;;5.70;5.20;;;12.30;1.00;;;;;;5045482;28;20448;-60
2022/06/03 02:42:36;;;;;;;7.13;5.27;;;12.20;1.00;;;;;;5047709;28;20449;-62
2022/06/03 02:45:26;;;;;;;5.40;4.30;;;12.20;1.00;;;;;;5043258;28;20447;-60
2022/06/03 02:48:13;;;;;;;5.10;4.73;;;12.20;1.00;;;;;;5043944;28;20471;-60
2022/06/03 02:50:54;;;;;;;5.83;5.43;;;12.20;1.00;;;;;;5040504;28;20439;-61
2022/06/03 02:53:47;;;;;;;6.00;5.27;;;12.20;1.00;;;;;;5046018;28;20488;-60
2022/06/03 02:56:33;;;;;;;4.20;3.90;;;12.20;1.00;;;;;;5044223;28;20470;-61
2022/06/03 02:59:30;;;;;;;5.47;5.07;;;12.30;1.00;;;;;;5046988;28;20478;-60
2022/06/03 03:02:19;;;;;;;5.17;4.77;;;12.30;1.00;;;;;;5040535;28;20450;-62
2022/06/03 03:04:56;;;;;;;4.90;4.40;;;12.20;1.00;;;;;;5051810;28;20448;-60
2022/06/03 03:07:42;;;;;;;5.67;5.10;;;12.20;1.00;;;;;;5048086;28;20498;-60
2022/06/03 03:10:29;;;;;;;6.03;5.43;;;12.20;1.00;;;;;;5052110;28;20453;-60
2022/06/03 03:13:26;;;;;;;5.60;5.20;;;12.20;1.00;;;;;;5041674;28;20474;-60
2022/06/03 03:16:21;;;;;;;5.13;4.47;;;12.20;1.00;;;;;;5036005;28;20470;-60
2022/06/03 03:19:24;;;;;;;5.47;5.10;;;12.20;1.00;;;;;;5051994;28;20485;-61
2022/06/03 03:21:50;;;;;;;5.50;4.90;;;12.30;1.00;;;;;;5046206;28;20453;-61
2022/06/03 03:24:16;;;;;;;4.87;4.57;;;12.70;1.00;;;;;;5046311;28;20465;-60
2022/06/03 03:26:55;;;;;;;4.20;3.90;;;12.20;1.00;;;;;;5046155;28;20203;-60
2022/06/03 03:29:41;;;;;;;4.93;4.57;;;12.30;1.00;;;;;;5054414;28;20216;-60
2022/06/03 03:32:17;;;;;;;4.57;4.27;;;12.80;1.00;;;;;;5041858;28;20892;-61
2022/06/03 03:35:02;;;;;;;5.47;4.20;;;12.80;1.00;;;;;;5045522;28;20449;-60
2022/06/03 03:38:01;;;;;;;4.40;3.67;;;13.10;1.00;;;;;;5052544;28;20438;-61
2022/06/03 03:40:48;;;;;;;5.40;3.50;;;13.40;1.00;;;;;;5049558;28;20428;-60
2022/06/03 03:43:45;;;;;;;4.03;3.77;;;13.50;1.00;;;;;;5052821;28;20446;-61
2022/06/03 03:46:29;;;;;;;5.00;4.60;;;13.70;1.00;;;;;;5049193;28;20476;-60
2022/06/03 03:49:25;;;;;;;4.57;4.27;;;13.70;1.00;;;;;;5058070;28;20785;-60
2022/06/03 03:51:54;;;;;;;5.80;5.20;;;13.70;1.00;;;;;;5048811;28;20433;-61
2022/06/03 03:54:43;;;;;;;4.63;4.23;;;13.40;1.00;;;;;;5051323;28;20542;-61
2022/06/03 03:57:14;;;;;;;4.60;4.20;;;13.40;1.00;;;;;;5050138;28;20477;-61
2022/06/03 03:59:40;;;;;;;6.00;4.00;;;13.20;1.00;;;;;;5053081;28;20979;-59
2022/06/03 04:02:28;;;;;;;5.53;5.13;;;13.00;1.00;;;;;;5054078;28;20438;-58
2022/06/03 04:05:26;;;;;;;5.63;5.13;;;12.90;1.00;;;;;;5057520;28;20219;-57
2022/06/03 04:08:23;;;;;;;4.90;4.50;;;12.90;1.00;;;;;;5061064;28;20449;-58
2022/06/03 04:11:01;;;;;;;6.90;5.00;;;12.80;1.00;;;;;;5056851;28;20446;-58
2022/06/03 04:14:07;;;;;;;5.10;4.70;;;12.80;1.00;;;;;;5063726;28;20498;-58
2022/06/03 04:16:36;;;;;;;5.70;5.30;;;12.90;1.00;;;;;;5057254;28;20432;-58
2022/06/03 04:19:21;;;;;;;5.73;5.20;;;12.70;1.00;;;;;;5048278;28;20446;-58
2022/06/03 04:22:29;;;;;;;5.83;5.33;;;12.90;1.00;;;;;;5043576;28;20442;-57
2022/06/03 04:25:10;;;;;;;5.40;4.90;;;12.90;1.00;;;;;;5049648;28;20421;-58
2022/06/03 04:27:50;;;;;;;6.30;4.77;;;12.90;1.00;;;;;;5061520;28;20438;-59
2022/06/03 04:30:32;;;;;;;5.40;5.00;;;13.00;1.00;;;;;;5052543;28;20445;-58
2022/06/03 04:33:35;;;;;;;4.80;4.40;;;13.00;1.00;;;;;;5059694;28;20460;-58
2022/06/03 04:36:41;;;;;;;5.27;4.87;;;13.00;1.00;;;;;;5060394;28;20528;-59
2022/06/03 04:39:21;;;;;;;5.23;4.73;;;13.10;1.00;;;;;;5053207;28;20434;-58
2022/06/03 04:42:20;;;;;;;6.50;4.83;;;13.10;1.00;;;;;;5062797;28;20473;-60
2022/06/03 04:45:04;;;;;;;5.50;4.53;;;13.30;1.00;;;;;;5062507;28;20465;-60
2022/06/03 04:48:04;;;;;;;4.97;4.57;;;13.30;1.00;;;;;;5055874;28;20474;-60
2022/06/03 04:51:00;;;;;;;4.67;4.37;;;13.30;1.00;;;;;;5058715;28;20823;-60
2022/06/03 04:53:47;;;;;;;7.60;4.80;;;13.40;1.00;;;;;;5062128;28;20443;-59
2022/06/03 04:56:50;;;;;;;5.30;4.80;;;13.50;1.00;;;;;;5061083;28;20468;-60
2022/06/03 04:59:46;;;;;;;4.93;4.53;;;13.50;1.00;;;;;;5057491;28;20464;-60
2022/06/03 05:03:04;;;;;;;5.20;4.80;;;13.50;1.00;;;;;;5054727;28;20450;-59
2022/06/03 05:06:00;;;;;;;4.77;4.37;;;13.70;1.00;;;;;;5058459;28;21002;-59
2022/06/03 05:08:53;;;;;;;5.00;4.60;;;13.80;1.00;;;;;;5056012;28;21092;-60
2022/06/03 05:12:02;;;;;;;6.50;4.50;;;13.90;1.00;;;;;;5056506;28;20526;-60
2022/06/03 05:14:52;;;;;;;4.77;4.37;;;14.10;1.00;;;;;;5061452;28;20854;-59
2022/06/03 05:17:32;;;;;;;4.50;4.20;;;14.20;1.00;;;;;;5055580;28;21155;-60
2022/06/03 05:20:16;;;;;;;4.40;4.00;;;14.20;1.00;;;;;;5059862;28;20445;-60
2022/06/03 05:22:55;;;;;;;5.30;4.90;;;14.30;1.00;;;;;;5062193;28;20434;-61
2022/06/03 05:25:38;;;;;;;6.20;5.33;;;14.30;1.00;;;;;;5054867;28;20498;-61
2022/06/03 05:28:39;;;;;;;7.80;5.00;;;14.50;1.00;;;;;;5057872;28;20525;-60
2022/06/03 05:31:07;;;;;;;5.30;4.80;;;14.60;1.00;;;;;;5051565;28;20450;-60
2022/06/03 05:34:12;;;;;;;8.13;4.43;;;14.70;1.00;;;;;;5061142;28;20458;-60
2022/06/03 05:36:53;;;;;;;9.43;5.27;;;14.90;1.00;;;;;;5060085;28;20469;-60
2022/06/03 05:39:49;;;;;;;5.07;4.27;;;15.00;1.00;;;;;;5058209;28;20446;-60
2022/06/03 05:42:35;;;;;;;5.20;4.90;;;15.20;1.00;;;;;;5057627;28;20442;-60
2022/06/03 05:45:18;;;;;;;8.83;4.10;;;15.30;1.00;;;;;;5054025;28;20446;-59
2022/06/03 05:48:03;;;;;;;5.40;4.60;;;15.50;1.00;;;;;;5058867;28;20469;-60
2022/06/03 05:50:47;;;;;;;4.70;4.33;;;15.60;1.00;;;;;;5056038;28;20454;-61
2022/06/03 05:53:27;;;;;;;4.90;4.47;;;15.80;1.00;;;;;;5057052;28;20417;-60
2022/06/03 05:56:26;;;;;;;7.10;4.60;;;15.80;1.00;;;;;;5058301;28;20448;-60
2022/06/03 05:59:23;;;;;;;5.40;3.97;;;16.00;1.00;;;;;;5057276;28;20472;-60
2022/06/03 06:02:09;;;;;;;5.13;4.73;;;16.20;1.00;;;;;;5055255;28;20473;-59
2022/06/03 06:04:50;;;;;;;4.40;4.10;;;16.20;1.00;;;;;;5059429;28;20830;-61
2022/06/03 06:07:28;;;;;;;6.57;3.80;;;16.30;1.00;;;;;;5052304;28;20449;-60
2022/06/03 06:10:00;;;;;;;4.70;4.30;;;16.30;1.00;;;;;;5056801;28;20440;-60
2022/06/03 06:12:36;;;;;;;5.00;4.70;;;16.50;1.00;;;;;;5052091;28;20422;-59
2022/06/03 06:15:45;;;;;;;4.40;4.10;;;16.40;1.00;;;;;;5059853;28;20497;-61
2022/06/03 06:18:20;;;;;;;9.97;4.73;;;16.60;1.00;;;;;;5057008;28;20914;-61
2022/06/03 06:20:58;;;;;;;4.20;3.90;;;16.70;1.00;;;;;;5059866;28;20959;-59
2022/06/03 06:23:41;;;;;;;4.93;4.53;;;17.00;1.00;;;;;;5056820;28;20441;-60
2022/06/03 06:26:35;;;;;;;4.23;3.93;;;17.20;1.00;;;;;;5054431;28;20533;-60
2022/06/03 06:29:34;;;;;;;5.23;4.77;;;17.50;1.00;;;;;;5058671;28;20442;-60
2022/06/03 06:32:37;;;;;;;3.77;3.47;;;17.70;1.00;;;;;;5049499;28;20424;-60
2022/06/03 06:35:22;;;;;;;4.87;4.40;;;17.80;1.00;;;;;;5055188;28;20976;-60
2022/06/03 06:38:05;;;;;;;4.70;4.30;;;18.00;1.00;;;;;;5058067;28;20419;-59
2022/06/03 06:40:45;;;;;;;4.73;4.33;;;18.20;1.00;;;;;;5059368;28;21026;-60
2022/06/03 06:43:48;;;;;;;4.87;4.00;;;18.30;1.00;;;;;;5052439;28;20445;-58
2022/06/03 06:46:47;;;;;;;4.80;3.80;;;18.40;1.00;;;;;;5058724;28;20575;-60
2022/06/03 06:49:38;;;;;;;4.97;4.47;;;18.60;1.00;;;;;;5062083;28;20914;-60
2022/06/03 06:52:19;;;;;;;3.90;3.50;;;18.80;1.00;;;;;;5060137;28;20488;-60
2022/06/03 06:55:04;;;;;;;5.90;4.00;;;19.00;1.00;;;;;;5054270;28;20449;-61
2022/06/03 06:57:33;;;;;;;5.53;3.70;;;19.20;1.00;;;;;;5054458;28;20572;-61
2022/06/03 07:00:04;;;;;;;6.03;3.60;;;19.30;1.00;;;;;;5055294;28;20442;-60
2022/06/03 07:02:33;;;;;;;4.07;3.47;;;19.30;1.00;;;;;;5054354;28;20432;-61
2022/06/03 07:05:04;;;;;;;4.07;3.27;;;19.50;1.00;;;;;;5053860;28;20541;-62
2022/06/03 07:07:43;;;;;;;6.30;3.87;;;19.50;1.00;;;;;;5051095;28;20451;-62
2022/06/03 07:10:32;;;;;;;5.93;3.50;;;19.70;1.00;;;;;;5058419;28;20437;-61
2022/06/03 07:13:09;;;;;;;3.80;3.50;;;20.00;1.00;;;;;;5058596;28;20439;-61
2022/06/03 07:16:05;;;;;;;3.37;3.07;;;20.20;1.00;;;;;;5061107;28;20465;-62
2022/06/03 07:21:54;;;;;;;3.20;2.90;;;20.30;1.00;;;;;;5061749;28;20762;-61
2022/06/03 07:24:32;;;;;;;3.20;2.87;;;20.50;1.00;;;;;;5061405;28;20965;-61
2022/06/03 07:27:05;;;;;;;2.70;2.37;;;21.00;1.00;;;;;;5056236;28;20405;-61
2022/06/03 07:29:48;;;;;;;4.63;2.50;;;21.00;1.00;;;;;;5055127;28;20505;-60
2022/06/03 07:32:29;;;;;;;3.40;2.17;;;21.20;1.00;;;;;;5061083;28;20413;-62
2022/06/03 07:35:26;;;;;;;3.17;2.67;;;21.40;1.00;;;;;;5065221;28;20421;-61
2022/06/03 07:38:02;;;;;;;2.40;2.20;;;21.50;1.00;;;;;;5060502;28;20783;-61
2022/06/03 07:40:37;;;;;;;1.90;1.80;;;21.70;1.00;;;;;;5061230;28;20445;-61
2022/06/03 07:43:12;;;;;;;2.80;2.17;;;21.80;1.00;;;;;;5067503;28;20515;-61
2022/06/03 07:45:49;;;;;;;6.43;2.20;;;22.20;1.00;;;;;;5061859;28;20412;-60
2022/06/03 07:48:18;;;;;;;2.90;1.97;;;22.20;1.00;;;;;;5062696;28;20415;-60
2022/06/03 07:51:23;;;;;;;3.20;2.20;;;22.30;1.00;;;;;;5067855;28;20412;-62
2022/06/03 07:54:03;;;;;;;3.77;2.57;;;22.40;1.00;;;;;;5041508;28;20575;-61
2022/06/03 07:56:31;;;;;;;3.87;2.30;;;22.50;1.00;;;;;;5055260;28;20462;-61
2022/06/03 07:59:00;;;;;;;2.60;1.97;;;22.60;1.00;;;;;;5057001;28;20440;-61
2022/06/03 08:01:37;;;;;;;3.10;2.40;;;22.60;1.00;;;;;;5063772;28;20962;-61
2022/06/03 08:04:06;;;;;;;2.57;2.37;;;22.70;1.00;;;;;;5050799;28;20427;-61
2022/06/03 08:12:24;;;;;;;2.77;2.50;;;23.10;1.00;;;;;;5054831;28;20464;-60
2022/06/03 08:14:50;;;;;;;3.17;2.07;;;23.20;1.00;;;;;;5052361;28;20446;-61
2022/06/03 08:17:19;;;;;;;2.17;1.83;;;23.20;1.00;;;;;;5057114;28;20436;-60
2022/06/03 08:19:45;;;;;;;4.87;2.70;;;23.20;1.00;;;;;;5062196;28;20195;-60
2022/06/03 08:22:14;;;;;;;2.70;2.50;;;23.30;1.00;;;;;;5068446;28;21919;-61
2022/06/03 08:24:50;;;;;;;2.87;2.20;;;23.40;1.00;;;;;;5072162;28;20183;-61
2022/06/03 08:27:23;;;;;;;2.30;2.10;;;23.40;1.00;;;;;;5059166;28;20447;-61
2022/06/03 08:29:54;;;;;;;2.50;2.30;;;23.40;1.00;;;;;;5057029;28;20442;-61
2022/06/03 08:32:28;;;;;;;2.43;2.33;;;23.60;1.00;;;;;;5049856;28;20446;-61
2022/06/03 08:34:55;;;;;;;9.47;2.30;;;23.60;1.00;;;;;;5051383;28;20417;-61
2022/06/03 08:37:48;;;;;;;2.80;2.27;;;23.80;1.00;;;;;;5052077;28;20439;-61
2022/06/03 08:40:42;;;;;;;2.80;2.23;;;24.00;1.00;;;;;;5053107;28;20413;-62
2022/06/03 08:43:38;;;;;;;2.87;2.20;;;24.10;1.00;;;;;;5051011;28;20405;-62
2022/06/03 08:46:21;;;;;;;2.27;2.17;;;24.30;1.00;;;;;;5067456;28;20416;-61
2022/06/03 08:48:51;;;;;;;2.40;2.20;;;24.40;1.00;;;;;;5052221;28;20446;-62
2022/06/03 08:51:32;;;;;;;4.40;2.30;;;24.50;1.00;;;;;;5052127;28;20445;-64
2022/06/03 08:54:06;;;;;;;3.20;2.50;;;24.60;1.00;;;;;;5050585;28;20454;-63
2022/06/03 08:56:35;;;;;;;2.40;2.20;;;24.70;1.00;;;;;;5054248;28;20580;-62
2022/06/03 08:59:05;;;;;;;2.17;1.77;;;24.90;1.00;;;;;;5063390;28;20420;-62
2022/06/03 09:01:39;;;;;;;2.57;2.07;;;25.00;1.00;;;;;;5047198;28;20457;-62
2022/06/03 09:04:19;;;;;;;3.80;2.60;;;25.10;1.00;;;;;;5050146;28;20772;-61
2022/06/03 09:07:17;;;;;;;2.80;2.10;;;25.10;1.00;;;;;;5051191;28;20505;-62
2022/06/03 09:10:13;;;;;;;2.03;1.93;;;25.10;1.00;;;;;;5048460;28;20510;-63
2022/06/03 09:13:06;;;;;;;3.67;2.60;;;25.30;1.00;;;;;;5054524;28;20779;-63
2022/06/03 09:15:39;;;;;;;4.60;2.37;;;25.30;1.00;;;;;;5050168;28;21016;-62
2022/06/03 09:18:07;;;;;;;2.53;2.20;;;25.30;1.00;;;;;;5047456;28;20459;-62
2022/06/03 09:21:00;;;;;;;2.60;2.40;;;25.20;1.00;;;;;;5056674;28;20458;-63
2022/06/03 09:23:27;;;;;;;6.27;2.67;;;25.30;1.00;;;;;;5050181;28;20929;-62
2022/06/03 09:25:56;;;;;;;7.03;2.50;;;25.30;1.00;;;;;;5053471;28;20447;-62
2022/06/03 09:28:33;;;;;;;4.53;2.50;;;25.60;1.00;;;;;;5057306;28;20779;-61
2022/06/03 09:31:04;;;;;;;2.60;2.30;;;25.60;1.00;;;;;;5046644;28;20424;-61
2022/06/03 09:33:30;;;;;;;3.67;2.40;;;25.80;1.00;;;;;;5052122;28;20449;-62
2022/06/03 09:36:00;;;;;;;2.63;2.43;;;25.70;1.00;;;;;;5051643;28;20555;-62
2022/06/03 09:38:38;;;;;;;2.87;2.27;;;26.00;1.00;;;;;;5057648;28;20916;-62
2022/06/03 09:41:04;;;;;;;2.27;2.07;;;26.00;1.00;;;;;;5063155;28;20505;-62
2022/06/03 09:43:35;;;;;;;2.63;2.30;;;26.00;1.00;;;;;;5059582;28;20842;-62
2022/06/03 09:46:03;;;;;;;5.93;2.10;;;26.00;1.00;;;;;;5049356;28;20275;-61
2022/06/03 09:48:36;;;;;;;2.50;2.30;;;25.90;1.00;;;;;;5052784;28;20433;-61
2022/06/03 09:51:55;;;;;;;2.43;2.17;;;26.10;1.00;;;;;;5047999;28;20450;-65
2022/06/03 09:54:13;;;;;;;2.30;2.10;;;26.10;1.00;;;;;;5048452;28;20495;-66
2022/06/03 09:56:40;;;;;;;2.53;2.33;;;26.20;1.00;;;;;;5048635;28;20437;-67
2022/06/03 09:59:07;;;;;;;8.20;2.53;;;26.50;1.00;;;;;;5048430;28;20473;-68
2022/06/03 10:01:35;;;;;;;2.67;2.40;;;26.70;1.00;;;;;;5049243;28;20473;-67
2022/06/03 10:04:05;;;;;;;2.70;2.50;;;26.70;1.00;;;;;;5054015;28;20915;-67
2022/06/03 10:06:43;;;;;;;3.17;2.33;;;26.60;1.00;;;;;;5050650;28;20434;-67
2022/06/03 10:15:37;;;;;;;3.30;2.67;;;26.60;1.00;;;;;;5063699;28;20479;-66
2022/06/03 10:17:34;;;;;;;4.73;2.20;;;26.60;1.00;;;;;;5070089;28;20532;-65
2022/06/03 10:20:00;;;;;;;2.90;2.43;;;26.60;1.00;;;;;;5055191;28;20610;-65
2022/06/03 10:22:26;;;;;;;2.83;2.63;;;26.60;1.00;;;;;;5050546;28;20431;-66
2022/06/03 10:24:55;;;;;;;4.17;2.83;;;26.70;1.00;;;;;;5046806;28;20203;-65
2022/06/03 10:27:21;;;;;;;2.90;2.50;;;26.60;1.00;;;;;;5047991;28;20429;-65
2022/06/03 10:29:49;;;;;;;2.87;2.13;;;26.50;1.00;;;;;;5048924;28;20428;-65
2022/06/03 10:32:18;;;;;;;2.57;2.37;;;26.60;1.00;;;;;;5043552;28;21021;-64
2022/06/03 10:34:44;;;;;;;3.50;2.40;;;27.00;1.00;;;;;;5048105;28;20541;-63
2022/06/03 10:37:14;;;;;;;3.07;2.63;;;27.00;1.00;;;;;;5046309;28;20550;-65
2022/06/03 10:39:41;;;;;;;2.97;2.73;;;27.20;1.00;;;;;;5054082;28;20438;-64
2022/06/03 10:42:13;;;;;;;4.63;2.87;;;27.30;1.00;;;;;;5046475;28;20469;-65
2022/06/03 10:44:44;;;;;;;3.40;3.10;;;27.50;1.00;;;;;;5047600;28;20456;-65
2022/06/03 10:47:21;;;;;;;4.80;2.83;;;27.50;1.00;;;;;;5048269;28;20479;-65
2022/06/03 10:49:55;;;;;;;2.90;2.60;;;27.50;1.00;;;;;;5047966;28;20494;-64
2022/06/03 11:01:31;;;;;;;4.93;2.57;;;27.60;1.00;;;;;;5047255;28;20477;-65
2022/06/03 11:03:57;;;;;;;2.70;2.43;;;27.70;1.00;;;;;;5046847;28;20442;-65
2022/06/03 11:06:27;;;;;;;2.97;2.63;;;27.80;1.00;;;;;;5048230;28;20457;-65
2022/06/03 11:08:59;;;;;;;3.20;2.47;;;27.50;1.00;;;;;;5046932;28;20196;-65
2022/06/03 11:11:42;;;;;;;2.77;2.57;;;27.20;1.00;;;;;;5045765;28;20450;-65
2022/06/03 11:14:26;;;;;;;3.07;2.77;;;27.20;1.00;;;;;;5050534;28;20834;-66
2022/06/03 11:17:29;;;;;;;5.10;2.77;;;27.50;1.00;;;;;;5047045;28;20449;-66
2022/06/03 11:19:56;;;;;;;2.90;2.70;;;27.50;1.00;;;;;;5048186;28;20442;-65
2022/06/03 11:22:36;;;;;;;3.93;3.37;;;27.40;1.00;;;;;;5049579;28;20533;-65
2022/06/03 11:25:26;;;;;;;2.90;2.70;;;27.40;1.00;;;;;;5060822;28;20435;-65
2022/06/03 11:28:11;;;;;;;4.00;2.83;;;27.40;1.00;;;;;;5048983;28;20435;-66
2022/06/03 11:30:48;;;;;;;2.80;2.23;;;27.30;1.00;;;;;;5050373;28;20471;-65
2022/06/03 11:33:25;;;;;;;3.27;2.97;;;27.40;1.00;;;;;;5049567;28;20538;-64
2022/06/03 11:35:57;;;;;;;4.03;2.60;;;27.60;1.00;;;;;;5063139;28;20548;-65
2022/06/03 11:38:29;;;;;;;2.60;2.40;;;27.60;1.00;;;;;;5048916;28;20446;-65
2022/06/03 11:41:01;;;;;;;2.80;2.50;;;27.70;1.00;;;;;;5048406;28;20501;-65
2022/06/03 11:43:38;;;;;;;2.80;2.60;;;27.70;1.00;;;;;;5045109;28;20661;-65
2022/06/03 11:46:24;;;;;;;3.50;3.03;;;27.90;1.00;;;;;;5045386;28;20511;-66
2022/06/03 11:48:52;;;;;;;2.73;2.53;;;28.10;1.00;;;;;;5046183;28;20511;-65
2022/06/03 11:51:18;;;;;;;3.20;3.00;;;28.30;1.00;;;;;;5047025;28;20431;-64
2022/06/03 11:53:48;;;;;;;2.93;2.73;;;28.30;1.00;;;;;;5046237;28;20454;-63
2022/06/03 11:56:22;;;;;;;4.17;2.60;;;28.30;1.00;;;;;;5047658;28;20211;-63
2022/06/03 11:59:11;;;;;;;2.83;2.63;;;28.10;1.00;;;;;;5051752;28;20536;-64
2022/06/03 12:01:42;;;;;;;3.40;3.10;;;27.90;1.00;;;;;;5052914;28;20430;-63
2022/06/03 12:04:34;;;;;;;3.03;2.73;;;28.10;1.00;;;;;;5048537;28;20552;-64
2022/06/03 12:07:11;;;;;;;3.13;2.60;;;28.00;1.00;;;;;;5051426;28;20484;-63
2022/06/03 12:09:45;;;;;;;2.97;2.77;;;28.10;1.00;;;;;;5052346;28;20710;-64
2022/06/03 12:15:31;;;;;;;3.07;2.77;;;27.80;1.00;;;;;;5053241;28;20461;-64
2022/06/03 12:18:11;;;;;;;2.80;2.60;;;27.70;1.00;;;;;;5052720;28;20443;-64
2022/06/03 12:20:52;;;;;;;2.93;2.73;;;27.70;1.00;;;;;;5052685;28;20438;-63
2022/06/03 12:23:18;;;;;;;6.03;3.27;;;27.80;1.00;;;;;;5052708;28;20476;-64
2022/06/03 12:25:44;;;;;;;4.37;2.70;;;27.70;1.00;;;;;;5052660;28;20512;-65
2022/06/03 12:28:24;;;;;;;3.13;2.73;;;27.60;1.00;;;;;;5052522;28;20537;-64
2022/06/03 12:30:51;;;;;;;3.60;3.30;;;27.50;1.00;;;;;;5055468;28;20707;-63
2022/06/03 12:33:36;;;;;;;4.87;2.90;;;27.40;1.00;;;;;;5054668;28;20897;-63
2022/06/03 12:36:05;;;;;;;3.03;2.80;;;27.40;1.00;;;;;;5050555;28;20469;-64
2022/06/03 12:38:53;;;;;;;3.90;3.10;;;27.60;1.00;;;;;;5050739;28;20944;-64
2022/06/03 12:41:46;;;;;;;2.93;2.63;;;27.70;1.00;;;;;;5052403;28;20438;-64
2022/06/03 12:44:33;;;;;;;3.03;2.73;;;27.80;1.00;;;;;;5053522;28;20397;-58
2022/06/03 12:47:17;;;;;;;2.93;2.73;;;28.00;1.00;;;;;;5072148;28;20516;-58
2022/06/03 12:49:43;;;;;;;3.00;2.70;;;27.60;1.00;;;;;;5070036;28;20411;-58
2022/06/03 12:52:31;;;;;;;6.43;3.67;;;27.50;1.00;;;;;;5062044;28;20426;-60
2022/06/03 12:55:02;;;;;;;3.10;2.90;;;27.50;1.00;;;;;;5071926;28;20523;-60
2022/06/03 12:57:48;;;;;;;3.17;2.87;;;27.60;1.00;;;;;;5071881;28;20512;-59
2022/06/03 13:00:18;;;;;;;4.70;2.97;;;27.60;1.00;;;;;;5051284;28;20438;-59
2022/06/03 13:02:52;;;;;;;2.70;2.50;;;27.70;1.00;;;;;;5060572;28;20434;-58
2022/06/03 13:05:27;;;;;;;3.00;2.80;;;28.00;1.00;;;;;;5056326;28;20521;-59
2022/06/03 13:08:27;;;;;;;3.63;3.30;;;28.80;1.00;;;;;;5051838;28;20445;-58
2022/06/03 13:10:58;;;;;;;3.23;2.93;;;28.00;1.00;;;;;;5068556;28;20438;-59
2022/06/03 13:13:30;;;;;;;2.93;2.73;;;28.10;1.00;;;;;;5062240;28;20438;-59
2022/06/03 13:16:19;;;;;;;2.97;2.70;;;28.20;1.00;;;;;;5050540;28;20815;-59
2022/06/03 13:18:47;;;;;;;3.03;2.77;;;28.30;1.00;;;;;;5052999;28;20401;-59
2022/06/03 13:21:57;;;;;;;2.50;2.30;;;28.30;1.00;;;;;;5063913;28;20445;-59
2022/06/03 13:24:25;;;;;;;3.23;2.70;;;28.10;1.00;;;;;;5066724;28;20408;-58
2022/06/03 13:27:20;;;;;;;3.30;3.00;;;28.10;1.00;;;;;;5067240;28;20476;-58
2022/06/03 13:29:57;;;;;;;3.60;2.83;;;28.00;1.00;;;;;;5060968;28;20449;-59
2022/06/03 13:32:34;;;;;;;5.13;2.40;;;28.20;1.00;;;;;;5067927;28;20463;-60
2022/06/03 13:35:20;;;;;;;2.70;2.50;;;28.30;1.00;;;;;;5055682;28;20880;-60
2022/06/03 13:37:57;;;;;;;2.60;2.40;;;28.40;1.00;;;;;;5062809;28;20846;-59
2022/06/03 13:40:26;;;;;;;3.00;2.80;;;28.60;1.00;;;;;;5068347;28;20429;-59
2022/06/03 13:42:57;;;;;;;3.03;2.63;;;28.60;1.00;;;;;;5069705;28;20560;-60
2022/06/03 13:45:25;;;;;;;2.97;2.57;;;28.60;1.00;;;;;;5062731;28;20417;-59
2022/06/03 13:47:55;;;;;;;2.83;2.60;;;28.60;1.00;;;;;;5060332;28;20452;-58
2022/06/03 13:50:34;;;;;;;3.63;2.93;;;28.70;1.00;;;;;;5056637;28;20506;-58
2022/06/03 13:53:04;;;;;;;3.87;3.13;;;28.90;1.00;;;;;;5050922;28;20493;-58
2022/06/03 13:55:38;;;;;;;2.77;2.57;;;29.00;1.00;;;;;;5058400;28;20436;-59
2022/06/03 13:58:32;;;;;;;2.60;2.40;;;29.10;1.00;;;;;;5063629;28;20996;-58
2022/06/03 14:01:27;;;;;;;2.87;2.63;;;29.10;1.00;;;;;;5050179;28;20856;-59
2022/06/03 14:04:07;;;;;;;3.07;2.87;;;29.20;1.00;;;;;;5052512;28;20925;-60
2022/06/03 14:06:39;;;;;;;2.53;2.20;;;29.70;1.00;;;;;;5070118;28;20495;-60
2022/06/03 14:09:07;;;;;;;4.07;2.40;;;30.50;1.00;;;;;;5070504;28;20433;-60
2022/06/03 14:11:44;;;;;;;2.53;2.30;;;31.10;1.00;;;;;;5066239;28;20475;-58
2022/06/03 14:14:20;;;;;;;2.53;2.33;;;31.40;1.00;;;;;;5059766;28;20400;-58
2022/06/03 14:16:58;;;;;;;2.70;2.50;;;31.30;1.00;;;;;;5070384;28;20436;-60
2022/06/03 14:19:47;;;;;;;2.53;2.33;;;32.50;1.00;;;;;;5062356;28;20472;-59
2022/06/03 14:22:36;;;;;;;2.63;2.47;;;33.30;1.00;;;;;;5050646;28;20396;-59
2022/06/03 14:25:19;;;;;;;2.90;2.40;;;34.00;1.00;;;;;;5055613;28;20462;-58
2022/06/03 14:28:09;;;;;;;2.83;2.63;;;33.90;1.00;;;;;;5055302;28;20466;-57
2022/06/03 14:30:50;;;;;;;2.30;2.20;;;33.80;1.00;;;;;;5066073;28;20412;-59
2022/06/03 14:33:17;;;;;;;2.90;2.30;;;34.10;1.00;;;;;;5063174;28;20437;-59
2022/06/03 14:35:50;;;;;;;2.20;2.10;;;35.40;1.00;;;;;;5070234;28;20795;-58
2022/06/03 14:38:57;;;;;;;3.80;2.20;;;37.00;1.00;;;;;;5070182;28;20412;-60
2022/06/03 14:41:30;;;;;;;2.80;2.60;;;36.60;1.00;;;;;;5066375;28;20422;-59
2022/06/03 14:43:58;;;;;;;2.70;2.50;;;36.10;1.00;;;;;;5049898;28;20409;-59